createdAt,value
2022-10-20T00:02:01.690Z,11.64
2022-10-20T00:04:34.447Z,11.56
2022-10-20T00:07:06.726Z,11.68
2022-10-20T00:09:39.181Z,11.79
2022-10-20T00:12:12.110Z,11.76
2022-10-20T00:14:44.434Z,11.71
2022-10-20T00:17:16.730Z,11.75
2022-10-20T00:19:49.256Z,11.72
2022-10-20T00:22:21.589Z,11.72
2022-10-20T00:24:53.895Z,11.74
2022-10-20T00:27:26.857Z,11.46
2022-10-20T00:29:59.194Z,11.43
2022-10-20T00:32:31.494Z,11.25
2022-10-20T00:35:04.334Z,11.21
2022-10-20T00:37:36.639Z,11.20
2022-10-20T00:40:09.981Z,11.32
2022-10-20T00:42:44.942Z,11.40
2022-10-20T00:45:19.298Z,11.45
2022-10-20T00:47:55.436Z,11.45
2022-10-20T00:50:31.150Z,11.46
2022-10-20T00:53:04.294Z,11.54
2022-10-20T00:55:42.216Z,11.60
2022-10-20T00:58:15.490Z,11.65
2022-10-20T01:00:50.627Z,11.67
2022-10-20T01:03:27.601Z,11.62
2022-10-20T01:06:00.094Z,11.60
2022-10-20T01:08:32.493Z,11.56
2022-10-20T01:11:17.630Z,11.60
2022-10-20T01:14:13.095Z,11.57
2022-10-20T01:16:57.853Z,11.57
2022-10-20T01:20:07.091Z,11.48
2022-10-20T01:23:07.373Z,11.54
2022-10-20T01:25:55.261Z,11.60
2022-10-20T01:28:36.804Z,11.52
2022-10-20T01:31:16.811Z,11.64
2022-10-20T01:33:58.207Z,11.59
2022-10-20T01:36:36.803Z,11.53
2022-10-20T01:39:15.530Z,11.65
2022-10-20T01:41:53.103Z,11.48
2022-10-20T01:44:29.411Z,11.44
2022-10-20T01:47:03.025Z,11.44
2022-10-20T01:49:35.626Z,11.50
2022-10-20T01:52:10.259Z,11.55
2022-10-20T01:54:42.559Z,11.63
2022-10-20T01:57:33.431Z,11.69
2022-10-20T02:00:08.695Z,11.53
2022-10-20T02:03:13.523Z,11.54
2022-10-20T02:05:54.470Z,11.56
2022-10-20T02:08:34.185Z,11.40
2022-10-20T02:11:09.787Z,11.50
2022-10-20T02:13:42.815Z,11.51
2022-10-20T02:16:20.126Z,11.50
2022-10-20T02:18:52.770Z,11.45
2022-10-20T02:21:25.356Z,11.46
2022-10-20T02:24:03.074Z,11.42
2022-10-20T02:26:38.404Z,11.37
2022-10-20T02:29:13.915Z,11.13
2022-10-20T02:31:47.426Z,11.18
2022-10-20T02:34:19.728Z,11.16
2022-10-20T02:36:55.336Z,11.19
2022-10-20T02:39:27.651Z,11.02
2022-10-20T02:41:59.952Z,11.10
2022-10-20T02:44:32.414Z,11.08
2022-10-20T02:47:05.369Z,11.01
2022-10-20T02:49:37.682Z,11.00
2022-10-20T02:52:09.943Z,10.94
2022-10-20T02:54:42.279Z,10.95
2022-10-20T02:57:14.557Z,10.63
2022-10-20T02:59:46.839Z,10.68
2022-10-20T03:02:19.872Z,10.68
2022-10-20T03:04:52.185Z,10.50
2022-10-20T03:07:24.487Z,10.47
2022-10-20T03:09:56.795Z,10.47
2022-10-20T03:12:31.572Z,10.40
2022-10-20T03:15:05.255Z,10.17
2022-10-20T03:17:38.536Z,10.13
2022-10-20T03:20:11.474Z,10.13
2022-10-20T03:22:43.784Z,9.83
2022-10-20T03:25:16.054Z,9.88
2022-10-20T03:27:48.348Z,9.82
2022-10-20T03:30:20.664Z,9.79
2022-10-20T03:32:55.201Z,9.77
2022-10-20T03:35:27.544Z,9.54
2022-10-20T03:37:59.823Z,9.45
2022-10-20T03:40:32.096Z,9.48
2022-10-20T03:43:04.459Z,9.44
2022-10-20T03:45:36.778Z,9.39
2022-10-20T03:48:11.448Z,9.42
2022-10-20T03:50:43.725Z,9.39
2022-10-20T03:53:16.089Z,9.38
2022-10-20T03:55:48.372Z,9.36
2022-10-20T03:58:20.697Z,9.36
2022-10-20T04:00:53.844Z,9.37
2022-10-20T04:03:26.815Z,9.30
2022-10-20T04:05:59.132Z,9.04
2022-10-20T04:08:31.576Z,9.14
2022-10-20T04:11:04.269Z,8.63
2022-10-20T04:13:36.634Z,8.92
2022-10-20T04:16:08.907Z,8.97
2022-10-20T04:18:41.900Z,9.05
2022-10-20T04:21:14.381Z,9.08
2022-10-20T04:23:46.722Z,9.15
2022-10-20T04:26:19.037Z,9.19
2022-10-20T04:28:51.374Z,9.20
2022-10-20T04:31:23.683Z,9.17
2022-10-20T04:33:56.662Z,9.26
2022-10-20T04:36:28.943Z,9.25
2022-10-20T04:39:01.360Z,9.17
2022-10-20T04:41:34.155Z,9.09
2022-10-20T04:44:06.523Z,9.16
2022-10-20T04:46:38.825Z,8.98
2022-10-20T04:49:11.846Z,8.84
2022-10-20T04:51:44.171Z,8.92
2022-10-20T04:54:16.509Z,8.90
2022-10-20T04:56:48.863Z,8.92
2022-10-20T04:59:21.238Z,8.96
2022-10-20T05:01:53.584Z,8.92
2022-10-20T05:04:26.842Z,8.95
2022-10-20T05:06:59.101Z,8.98
2022-10-20T05:09:32.274Z,8.99
2022-10-20T05:12:04.728Z,9.08
2022-10-20T05:14:37.244Z,8.99
2022-10-20T05:17:10.115Z,9.07
2022-10-20T05:19:43.289Z,9.10
2022-10-20T05:22:15.607Z,9.15
2022-10-20T05:24:47.966Z,9.11
2022-10-20T05:27:20.275Z,9.07
2022-10-20T05:29:52.574Z,8.94
2022-10-20T05:32:24.914Z,8.81
2022-10-20T05:34:57.879Z,8.83
2022-10-20T05:37:30.174Z,8.84
2022-10-20T05:40:03.146Z,8.85
2022-10-20T05:42:35.581Z,8.79
2022-10-20T05:45:09.255Z,8.85
2022-10-20T05:47:42.042Z,8.85
2022-10-20T05:50:15.135Z,8.89
2022-10-20T05:52:47.435Z,8.84
2022-10-20T05:55:19.852Z,8.79
2022-10-20T05:57:52.242Z,8.78
2022-10-20T06:00:30.226Z,8.83
2022-10-20T06:03:02.549Z,8.73
2022-10-20T06:05:35.642Z,8.81
2022-10-20T06:08:07.950Z,8.79
2022-10-20T06:10:40.243Z,8.73
2022-10-20T06:13:12.551Z,8.83
2022-10-20T06:15:46.885Z,8.70
2022-10-20T06:18:19.199Z,8.77
2022-10-20T06:21:00.614Z,8.74
2022-10-20T06:23:33.662Z,8.75
2022-10-20T06:26:08.099Z,8.75
2022-10-20T06:28:41.134Z,8.84
2022-10-20T06:31:15.268Z,8.80
2022-10-20T06:33:48.467Z,8.88
2022-10-20T06:36:22.231Z,8.92
2022-10-20T06:38:55.523Z,8.96
2022-10-20T06:41:28.317Z,9.03
2022-10-20T06:44:00.659Z,9.00
2022-10-20T06:46:35.464Z,9.08
2022-10-20T06:49:08.169Z,9.16
2022-10-20T06:51:41.270Z,9.23
2022-10-20T06:54:13.608Z,9.27
2022-10-20T06:56:45.874Z,9.35
2022-10-20T06:59:18.172Z,9.38
2022-10-20T07:01:50.608Z,9.47
2022-10-20T07:04:23.066Z,9.55
2022-10-20T07:06:56.029Z,9.64
2022-10-20T07:09:28.411Z,9.72
2022-10-20T07:12:01.951Z,9.75
2022-10-20T07:14:36.683Z,9.86
2022-10-20T07:17:09.006Z,10.04
2022-10-20T07:19:41.330Z,10.06
2022-10-20T07:22:14.333Z,10.01
2022-10-20T07:24:46.644Z,10.14
2022-10-20T07:27:18.942Z,10.33
2022-10-20T07:29:51.265Z,10.45
2022-10-20T07:32:23.652Z,10.56
2022-10-20T07:34:55.936Z,10.66
2022-10-20T07:37:29.020Z,10.67
2022-10-20T07:40:01.319Z,10.88
2022-10-20T07:42:33.797Z,10.90
2022-10-20T07:45:07.707Z,10.92
2022-10-20T07:47:42.153Z,11.07
2022-10-20T07:50:15.801Z,11.17
2022-10-20T07:52:51.689Z,11.24
2022-10-20T07:58:10.802Z,11.32
2022-10-20T08:00:43.136Z,11.38
2022-10-20T08:03:15.402Z,11.47
2022-10-20T08:05:47.699Z,11.20
2022-10-20T08:08:20.834Z,11.38
2022-10-20T08:10:53.207Z,11.58
2022-10-20T08:13:26.033Z,11.77
2022-10-20T08:21:28.946Z,12.23
2022-10-20T08:24:02.199Z,12.35
2022-10-20T08:26:34.626Z,12.39
2022-10-20T08:29:06.905Z,12.38
2022-10-20T08:31:39.321Z,12.47
2022-10-20T08:34:11.738Z,12.56
2022-10-20T08:36:44.272Z,12.65
2022-10-20T08:39:17.215Z,12.73
2022-10-20T08:42:09.011Z,12.80
2022-10-20T08:44:45.624Z,12.79
2022-10-20T08:47:29.173Z,13.02
2022-10-20T08:50:09.131Z,13.15
2022-10-20T08:52:43.336Z,13.29
2022-10-20T08:55:24.573Z,13.53
2022-10-20T08:58:02.384Z,13.73
2022-10-20T09:00:37.803Z,13.67
2022-10-20T09:03:15.388Z,13.75
2022-10-20T09:05:52.459Z,13.83
2022-10-20T09:08:29.458Z,13.76
2022-10-20T09:11:04.847Z,13.94
2022-10-20T09:13:37.330Z,13.93
2022-10-20T09:16:23.233Z,13.94
2022-10-20T09:19:16.405Z,14.05
2022-10-20T09:21:53.129Z,13.93
2022-10-20T09:24:29.537Z,14.00
2022-10-20T09:27:20.109Z,13.90
2022-10-20T09:29:52.419Z,13.80
2022-10-20T09:32:48.641Z,14.09
2022-10-20T09:35:25.083Z,14.38
2022-10-20T09:38:04.247Z,14.41
2022-10-20T09:40:44.242Z,14.61
2022-10-20T09:43:18.223Z,14.68
2022-10-20T09:45:54.507Z,14.86
2022-10-20T09:48:30.474Z,14.98
2022-10-20T09:51:05.883Z,14.96
2022-10-20T09:53:49.215Z,15.14
2022-10-20T09:56:30.150Z,15.14
2022-10-20T09:59:07.626Z,15.15
2022-10-20T10:01:53.610Z,15.24
2022-10-20T10:04:32.471Z,15.55
2022-10-20T10:07:26.171Z,15.68
2022-10-20T10:10:05.415Z,15.95
2022-10-20T10:12:40.588Z,16.09
2022-10-20T10:15:26.961Z,16.02
2022-10-20T10:18:00.147Z,16.30
2022-10-20T10:20:36.487Z,16.23
2022-10-20T10:23:19.191Z,16.47
2022-10-20T10:25:52.567Z,16.72
2022-10-20T10:28:37.395Z,16.81
2022-10-20T10:31:22.652Z,17.03
2022-10-20T10:34:02.227Z,17.14
2022-10-20T10:36:35.539Z,16.98
2022-10-20T10:39:13.301Z,16.87
2022-10-20T10:42:00.572Z,17.27
2022-10-20T10:44:44.834Z,17.10
2022-10-20T10:47:33.325Z,17.34
2022-10-20T10:50:26.968Z,17.33
2022-10-20T10:53:10.739Z,17.23
2022-10-20T10:55:53.511Z,17.16
2022-10-20T10:58:36.718Z,17.29
2022-10-20T11:01:30.249Z,17.35
2022-10-20T11:04:29.140Z,17.29
2022-10-20T11:07:08.780Z,17.65
2022-10-20T11:09:52.604Z,17.59
2022-10-20T11:12:41.790Z,17.09
2022-10-20T11:15:29.217Z,17.13
2022-10-20T11:18:30.186Z,17.17
2022-10-20T11:21:20.615Z,17.00
2022-10-20T11:24:12.990Z,17.41
2022-10-20T11:26:49.781Z,17.55
2022-10-20T11:29:31.003Z,17.24
2022-10-20T11:32:11.557Z,17.39
2022-10-20T11:34:52.363Z,17.35
2022-10-20T11:37:28.170Z,17.11
2022-10-20T11:40:14.098Z,17.24
2022-10-20T11:42:51.952Z,17.76
2022-10-20T11:45:42.028Z,17.69
2022-10-20T11:48:19.560Z,17.50
2022-10-20T11:51:17.118Z,17.44
2022-10-20T11:54:07.084Z,17.66
2022-10-20T11:57:03.542Z,17.46
2022-10-20T12:00:13.489Z,17.54
2022-10-20T12:03:30.277Z,18.20
2022-10-20T12:06:36.773Z,18.25
2022-10-20T12:09:42.142Z,18.21
2022-10-20T12:12:19.530Z,18.10
2022-10-20T12:14:57.479Z,17.67
2022-10-20T12:17:33.066Z,17.61
2022-10-20T12:20:59.041Z,17.49
2022-10-20T12:24:02.991Z,17.52
2022-10-20T12:27:26.960Z,17.82
2022-10-20T12:30:02.658Z,17.82
2022-10-20T12:33:03.635Z,18.15
2022-10-20T12:36:02.040Z,18.04
2022-10-20T12:38:34.445Z,17.89
2022-10-20T12:41:09.110Z,17.77
2022-10-20T12:43:50.828Z,17.92
2022-10-20T12:46:30.731Z,17.71
2022-10-20T12:49:08.101Z,17.81
2022-10-20T12:51:50.222Z,18.21
2022-10-20T12:54:26.693Z,18.23
2022-10-20T12:57:02.074Z,17.85
2022-10-20T12:59:39.771Z,17.89
2022-10-20T13:02:50.359Z,17.77
2022-10-20T13:05:49.582Z,17.73
2022-10-20T13:08:24.705Z,17.49
2022-10-20T13:11:40.451Z,17.29
2022-10-20T13:14:47.705Z,16.80
2022-10-20T13:17:29.375Z,16.35
2022-10-20T13:20:17.539Z,16.55
2022-10-20T13:22:52.489Z,16.63
2022-10-20T13:25:47.630Z,16.61
2022-10-20T13:28:23.330Z,16.47
2022-10-20T13:31:07.356Z,16.58
2022-10-20T13:34:05.326Z,16.42
2022-10-20T13:36:49.755Z,16.16
2022-10-20T13:39:29.226Z,16.01
2022-10-20T13:42:16.267Z,16.10
2022-10-20T13:45:03.082Z,16.03
2022-10-20T13:47:51.266Z,15.89
2022-10-20T13:50:27.970Z,16.00
2022-10-20T13:53:04.903Z,16.10
2022-10-20T13:55:57.099Z,16.01
2022-10-20T13:58:29.658Z,15.93
2022-10-20T14:01:05.816Z,16.02
2022-10-20T14:03:42.100Z,15.87
2022-10-20T14:06:35.047Z,15.81
2022-10-20T14:09:15.319Z,15.84
2022-10-20T14:11:50.125Z,15.86
2022-10-20T14:14:25.022Z,15.84
2022-10-20T14:17:00.375Z,15.84
2022-10-20T14:19:33.844Z,15.90
2022-10-20T14:22:17.662Z,15.75
2022-10-20T14:24:52.101Z,15.67
2022-10-20T14:27:27.779Z,15.65
2022-10-20T14:30:04.165Z,15.69
2022-10-20T14:32:39.981Z,15.71
2022-10-20T14:35:21.341Z,15.59
2022-10-20T14:37:58.132Z,15.57
2022-10-20T14:40:32.491Z,15.52
2022-10-20T14:43:07.315Z,15.36
2022-10-20T14:45:39.610Z,15.28
2022-10-20T14:48:16.305Z,15.27
2022-10-20T14:50:49.247Z,15.28
2022-10-20T14:53:30.927Z,15.22
2022-10-20T14:56:22.926Z,15.10
2022-10-20T14:58:58.051Z,14.88
2022-10-20T15:01:31.733Z,14.82
2022-10-20T15:06:44.949Z,14.73
2022-10-20T15:09:23.009Z,14.73
2022-10-20T15:11:55.429Z,14.75
2022-10-20T15:14:27.855Z,14.70
2022-10-20T15:17:00.407Z,14.62
2022-10-20T15:19:36.552Z,14.41
2022-10-20T15:22:10.636Z,14.40
2022-10-20T15:24:43.962Z,14.27
2022-10-20T15:27:17.716Z,14.25
2022-10-20T15:29:51.496Z,14.16
2022-10-20T15:32:24.066Z,14.18
2022-10-20T15:34:57.069Z,14.17
2022-10-20T15:37:29.411Z,14.19
2022-10-20T15:40:01.943Z,14.19
2022-10-20T15:42:34.489Z,13.90
2022-10-20T15:45:15.033Z,13.92
2022-10-20T15:47:47.884Z,13.92
2022-10-20T15:50:22.950Z,13.91
2022-10-20T15:52:57.279Z,13.86
2022-10-20T15:55:32.966Z,13.88
2022-10-20T15:58:05.334Z,13.82
2022-10-20T16:00:37.803Z,13.75
2022-10-20T16:03:15.765Z,13.60
2022-10-20T16:05:48.820Z,13.55
2022-10-20T16:08:21.127Z,13.47
2022-10-20T16:10:54.274Z,13.44
2022-10-20T16:13:26.639Z,13.36
2022-10-20T16:15:58.988Z,13.35
2022-10-20T16:18:31.361Z,13.25
2022-10-20T16:21:05.799Z,13.20
2022-10-20T16:23:42.208Z,13.19
2022-10-20T16:26:16.332Z,13.14
2022-10-20T16:28:48.690Z,13.07
2022-10-20T16:31:21.016Z,13.03
2022-10-20T16:33:53.313Z,12.98
2022-10-20T16:36:26.318Z,12.94
2022-10-20T16:39:00.102Z,12.87
2022-10-20T16:41:32.451Z,12.82
2022-10-20T16:44:06.316Z,12.80
2022-10-20T16:46:38.623Z,12.73
2022-10-20T16:49:11.669Z,12.63
2022-10-20T16:51:44.673Z,12.52
2022-10-20T16:54:17.193Z,12.48
2022-10-20T16:56:49.562Z,12.45
2022-10-20T16:59:22.113Z,12.44
2022-10-20T17:01:54.627Z,12.40
2022-10-20T17:04:27.688Z,12.34
2022-10-20T17:07:00.686Z,12.30
2022-10-20T17:09:33.065Z,12.25
2022-10-20T17:12:05.847Z,12.21
2022-10-20T17:14:39.902Z,12.18
2022-10-20T17:17:12.257Z,12.05
2022-10-20T17:19:44.551Z,12.06
2022-10-20T17:22:17.536Z,12.06
2022-10-20T17:24:49.864Z,11.97
2022-10-20T17:27:22.219Z,11.93
2022-10-20T17:29:54.529Z,11.94
2022-10-20T17:32:26.934Z,11.91
2022-10-20T17:34:59.262Z,11.90
2022-10-20T17:37:32.298Z,11.89
2022-10-20T17:40:06.309Z,11.87
2022-10-20T17:42:38.933Z,11.82
2022-10-20T17:45:11.597Z,11.83
2022-10-20T17:47:43.941Z,11.81
2022-10-20T17:50:16.332Z,11.77
2022-10-20T17:52:49.335Z,11.76
2022-10-20T17:55:21.755Z,11.74
2022-10-20T17:57:54.159Z,11.74
2022-10-20T18:00:51.211Z,11.64
2022-10-20T18:03:18.710Z,11.37
2022-10-20T18:05:51.077Z,11.35
2022-10-20T18:08:24.044Z,11.33
2022-10-20T18:10:56.349Z,11.32
2022-10-20T18:13:28.718Z,11.32
2022-10-20T18:16:04.207Z,11.28
2022-10-20T18:18:37.367Z,11.21
2022-10-20T18:21:11.926Z,11.06
2022-10-20T18:23:47.422Z,10.83
2022-10-20T18:26:20.499Z,10.81
2022-10-20T18:28:52.849Z,10.72
2022-10-20T18:31:26.853Z,10.60
2022-10-20T18:34:04.140Z,10.46
2022-10-20T18:36:42.005Z,10.46
2022-10-20T18:39:19.114Z,10.35
2022-10-20T18:41:53.747Z,10.17
2022-10-20T18:44:26.977Z,10.02
2022-10-20T18:46:59.724Z,10.10
2022-10-20T18:49:32.009Z,10.11
2022-10-20T18:52:04.336Z,10.00
2022-10-20T18:54:38.789Z,9.94
2022-10-20T18:57:11.063Z,9.97
2022-10-20T18:59:43.372Z,9.93
2022-10-20T19:02:15.691Z,9.92
2022-10-20T19:04:48.021Z,9.79
2022-10-20T19:07:20.363Z,9.78
2022-10-20T19:09:55.504Z,9.75
2022-10-20T19:12:28.016Z,9.51
2022-10-20T19:15:00.349Z,9.56
2022-10-20T19:17:32.728Z,9.49
2022-10-20T19:20:05.727Z,9.45
2022-10-20T19:22:38.755Z,9.46
2022-10-20T19:25:11.876Z,9.39
2022-10-20T19:27:44.133Z,9.33
2022-10-20T19:30:16.536Z,9.29
2022-10-20T19:32:51.536Z,9.21
2022-10-20T19:35:24.340Z,9.15
2022-10-20T19:37:56.730Z,9.03
2022-10-20T19:40:29.676Z,9.16
2022-10-20T19:43:02.042Z,8.98
2022-10-20T19:45:34.351Z,8.97
2022-10-20T19:48:06.715Z,8.87
2022-10-20T19:50:39.035Z,8.86
2022-10-20T19:53:11.952Z,8.85
2022-10-20T19:55:52.995Z,8.80
2022-10-20T19:58:25.355Z,8.75
2022-10-20T20:00:59.006Z,8.73
2022-10-20T20:03:31.567Z,8.70
2022-10-20T20:06:06.259Z,8.65
2022-10-20T20:08:38.615Z,8.55
2022-10-20T20:11:22.114Z,8.52
2022-10-20T20:13:57.899Z,8.40
2022-10-20T20:16:30.622Z,8.39
2022-10-20T20:19:03.375Z,8.36
2022-10-20T20:21:35.801Z,8.29
2022-10-20T20:24:10.894Z,8.26
2022-10-20T20:26:44.203Z,8.24
2022-10-20T20:29:16.563Z,8.25
2022-10-20T20:31:49.503Z,8.14
2022-10-20T20:34:21.790Z,8.13
2022-10-20T20:36:54.174Z,8.08
2022-10-20T20:39:26.490Z,8.07
2022-10-20T20:41:59.412Z,8.04
2022-10-20T20:44:31.709Z,8.00
2022-10-20T20:47:04.354Z,7.88
2022-10-20T20:49:36.682Z,7.89
2022-10-20T20:52:08.987Z,7.79
2022-10-20T20:54:41.314Z,7.70
2022-10-20T20:57:14.402Z,7.62
2022-10-20T20:59:46.751Z,7.57
2022-10-20T21:02:19.099Z,7.56
2022-10-20T21:04:51.450Z,7.42
2022-10-20T21:07:23.724Z,7.46
2022-10-20T21:09:56.028Z,7.45
2022-10-20T21:12:30.612Z,7.35
2022-10-20T21:15:06.710Z,7.29
2022-10-20T21:17:39.003Z,7.19
2022-10-20T21:20:11.351Z,7.13
2022-10-20T21:22:43.631Z,7.11
2022-10-20T21:25:16.077Z,7.08
2022-10-20T21:27:49.046Z,7.00
2022-10-20T21:30:21.369Z,7.00
2022-10-20T21:32:53.754Z,6.94
2022-10-20T21:35:26.199Z,6.84
2022-10-20T21:37:58.523Z,6.82
2022-10-20T21:40:31.576Z,6.83
2022-10-20T21:43:08.103Z,6.76
2022-10-20T21:45:40.426Z,6.74
2022-10-20T21:48:12.717Z,6.69
2022-10-20T21:50:45.050Z,6.72
2022-10-20T21:53:17.325Z,6.65
2022-10-20T21:55:49.626Z,6.55
2022-10-20T21:58:22.539Z,6.55
2022-10-20T22:00:56.203Z,6.57
2022-10-20T22:03:28.652Z,6.42
2022-10-20T22:06:01.864Z,6.43
2022-10-20T22:08:35.309Z,6.42
2022-10-20T22:11:10.616Z,6.37
2022-10-20T22:13:43.962Z,6.33
2022-10-20T22:16:19.315Z,6.28
2022-10-20T22:18:54.918Z,6.25
2022-10-20T22:21:28.673Z,6.23
2022-10-20T22:24:00.984Z,6.21
2022-10-20T22:26:33.852Z,6.14
2022-10-20T22:29:08.808Z,6.04
2022-10-20T22:31:41.498Z,5.93
2022-10-20T22:34:14.014Z,5.90
2022-10-20T22:36:46.391Z,5.82
2022-10-20T22:39:18.914Z,5.76
2022-10-20T22:41:51.310Z,5.75
2022-10-20T22:44:24.301Z,5.76
2022-10-20T22:46:56.603Z,5.74
2022-10-20T22:49:28.970Z,5.75
2022-10-20T22:52:01.292Z,5.65
2022-10-20T22:54:33.631Z,5.62
2022-10-20T22:57:05.966Z,5.56
2022-10-20T22:59:38.993Z,5.47
2022-10-20T23:02:11.323Z,5.44
2022-10-20T23:04:43.605Z,5.38
2022-10-20T23:07:15.902Z,5.41
2022-10-20T23:09:48.258Z,5.29
2022-10-20T23:12:20.598Z,5.27
2022-10-20T23:14:53.564Z,5.26
2022-10-20T23:17:26.014Z,5.23
2022-10-20T23:19:58.420Z,5.12
2022-10-20T23:22:30.751Z,5.16
2022-10-20T23:25:03.703Z,5.20
2022-10-20T23:27:36.542Z,5.20
2022-10-20T23:30:10.529Z,5.17
2022-10-20T23:32:42.860Z,5.12
2022-10-20T23:35:15.307Z,5.07
2022-10-20T23:37:47.630Z,5.02
2022-10-20T23:40:19.958Z,4.94
2022-10-20T23:42:52.329Z,4.87
2022-10-20T23:45:25.365Z,4.90
2022-10-20T23:47:57.738Z,4.89
2022-10-20T23:50:30.298Z,4.81
2022-10-20T23:53:02.632Z,4.82
2022-10-20T23:55:34.999Z,4.86
2022-10-20T23:58:07.334Z,4.87
